Portada
METAR-TAF:

METAR-TAF

Aeroports :

Damasc, Síria

latitud: 33-25N, longitud: 036-31E, altitud: 608 m

Observació

L'informe es va fer fa 31 minuts, a les 08:00 UTC
Vent 4 kt del Sud-Est
Temperatura 23°C
Humitat 16%
Pressió 1018 hPa
Visibilitat 10 km o més
Núvols disperses a una alçada de 3000 ft
Cel ennuvolat a una alçada de 10000 ft

METAR: OSDI 250800Z 13004KT 9999 SCT030 BKN100 23/M04 Q1018

Hora: 11:31 (08:31 UTC)

Pronòstic

L'informe es va fer fa 4 hores i 31 minuts, a les 04:00 UTC
Pronòstic vàlid del 25 a les 06 UTC al 26 a les 12 UTC
Vent 3 kt amb direcció variable
Visibilitat 10 km o més
sense núvols per sota de 1500 mi sense presència de cumulonimbus.
Temporalment
l' 25 a les 12 UTC al 25 a les 20 UTC
Vent 10 kt del Sud-Oest
Visibilitat 10 km o més
Escasses núvols a una alçada de 3000 ft

TAF: OSDI 250400Z 2506/2612 VRB03KT CAVOK TEMPO 2512/2520 22010KT 9999 FEW030

Observacions i pronòstics meteorològics de més de 4000 aeroports (METAR i TAF).

Les estacions disponibles són els punts grocs i vermells al mapa.

Posi el ratolí al punt desitjat per veure el nom de l'estació.

Feu clic per veure les observacions i els pronòstics meteorològics.

Per canviar el mapa: feu clic els botons verds amb una creu de color negre per apropar; al botó verd amb un guió per allunyar la imatge; o en les fletxes verdes per a mapes adjacents.


METAR-TAF: